createdAt,value
2022-12-27T00:02:03.133Z,101029.00
2022-12-27T00:08:05.751Z,101027.00
2022-12-27T00:14:08.365Z,101029.00
2022-12-27T00:20:11.856Z,101010.00
2022-12-27T00:26:20.497Z,101011.00
2022-12-27T00:32:22.837Z,100991.00
2022-12-27T00:38:25.168Z,100992.00
2022-12-27T00:44:27.482Z,100995.00
2022-12-27T00:50:29.891Z,101008.00
2022-12-27T00:56:32.629Z,100987.00
2022-12-27T01:02:35.096Z,100971.00
2022-12-27T01:08:37.766Z,100976.00
2022-12-27T01:14:39.942Z,100969.00
2022-12-27T01:20:42.098Z,100959.00
2022-12-27T01:26:44.286Z,100957.00
2022-12-27T01:32:46.864Z,100954.00
2022-12-27T01:38:49.780Z,100934.00
2022-12-27T01:44:56.663Z,100935.00
2022-12-27T01:51:04.568Z,100933.00
2022-12-27T01:57:07.173Z,100927.00
2022-12-27T02:03:09.566Z,100917.00
2022-12-27T02:09:19.816Z,100922.00
2022-12-27T02:15:21.974Z,100922.00
2022-12-27T02:21:59.781Z,100933.00
2022-12-27T02:28:25.997Z,100926.00
2022-12-27T02:34:35.553Z,100920.00
2022-12-27T02:40:59.335Z,100915.00
2022-12-27T02:47:20.600Z,100917.00
2022-12-27T02:53:55.251Z,100912.00
2022-12-27T03:00:25.449Z,100903.00
2022-12-27T03:06:57.806Z,100901.00
2022-12-27T03:13:24.920Z,100899.00
2022-12-27T03:20:06.467Z,100886.00
2022-12-27T03:26:10.430Z,100882.00
2022-12-27T03:32:34.513Z,100876.00
2022-12-27T03:38:47.384Z,100870.00
2022-12-27T03:44:49.957Z,100882.00
2022-12-27T03:50:57.212Z,100889.00
2022-12-27T03:57:06.383Z,100898.00
2022-12-27T04:03:08.569Z,100890.00
2022-12-27T04:09:30.864Z,100895.00
2022-12-27T04:15:51.879Z,100894.00
2022-12-27T04:22:12.659Z,100895.00
2022-12-27T04:28:33.664Z,100876.00
2022-12-27T04:34:45.022Z,100876.00
2022-12-27T04:41:05.527Z,100883.00
2022-12-27T04:47:35.477Z,100876.00
2022-12-27T04:53:56.413Z,100866.00
2022-12-27T05:00:17.438Z,100878.00
2022-12-27T05:06:20.852Z,100863.00
2022-12-27T05:12:41.880Z,100870.00
2022-12-27T05:18:46.303Z,100885.00
2022-12-27T05:25:07.107Z,100878.00
2022-12-27T05:31:10.561Z,100882.00
2022-12-27T05:37:12.907Z,100870.00
2022-12-27T05:43:15.374Z,100875.00
2022-12-27T05:49:17.627Z,100884.00
2022-12-27T05:55:19.785Z,100883.00
2022-12-27T06:01:22.176Z,100863.00
2022-12-27T06:07:24.404Z,100860.00
2022-12-27T06:13:26.840Z,100859.00
2022-12-27T06:19:30.153Z,100866.00
2022-12-27T06:25:32.312Z,100860.00
2022-12-27T06:31:34.780Z,100856.00
2022-12-27T06:37:37.145Z,100854.00
2022-12-27T06:43:39.929Z,100850.00
2022-12-27T06:49:42.225Z,100849.00
2022-12-27T06:55:44.602Z,100852.00
2022-12-27T07:01:46.994Z,100852.00
2022-12-27T07:07:49.289Z,100848.00
2022-12-27T07:13:54.665Z,100825.00
2022-12-27T07:19:56.821Z,100751.00
2022-12-27T07:26:04.033Z,100696.00
2022-12-27T07:32:06.282Z,100717.00
2022-12-27T07:38:08.421Z,100786.00
2022-12-27T07:44:11.521Z,100753.00
2022-12-27T07:50:13.896Z,100804.00
2022-12-27T07:56:25.208Z,100747.00
2022-12-27T08:02:28.331Z,100734.00
2022-12-27T08:08:42.747Z,100719.00
2022-12-27T08:14:44.872Z,100768.00
2022-12-27T08:20:46.908Z,100844.00
2022-12-27T08:26:49.108Z,100787.00
2022-12-27T08:32:51.299Z,100844.00
2022-12-27T08:38:55.054Z,100827.00
2022-12-27T08:44:57.365Z,100834.00
2022-12-27T08:51:12.966Z,100813.00
2022-12-27T08:57:16.710Z,100797.00
2022-12-27T09:03:20.629Z,100793.00
2022-12-27T09:09:23.018Z,100775.00
2022-12-27T09:15:25.250Z,100774.00
2022-12-27T09:21:30.621Z,100763.00
2022-12-27T09:27:34.804Z,100742.00
2022-12-27T09:33:37.453Z,100751.00
2022-12-27T09:39:39.605Z,100742.00
2022-12-27T09:45:47.237Z,100727.00
2022-12-27T09:51:52.924Z,100731.00
2022-12-27T09:58:05.888Z,100715.00
2022-12-27T10:04:13.760Z,100712.00
2022-12-27T10:10:36.323Z,100721.00
2022-12-27T10:16:53.601Z,100713.00
2022-12-27T10:23:06.238Z,100675.00
2022-12-27T10:29:20.976Z,100682.00
2022-12-27T10:35:24.467Z,100691.00
2022-12-27T10:41:35.839Z,100683.00
2022-12-27T10:47:38.566Z,100674.00
2022-12-27T10:53:52.560Z,100662.00
2022-12-27T11:00:13.659Z,100661.00
2022-12-27T11:06:25.713Z,100688.00
2022-12-27T11:12:32.436Z,100684.00
2022-12-27T11:18:36.648Z,100688.00
2022-12-27T11:24:47.329Z,100688.00
2022-12-27T11:31:14.668Z,100677.00
2022-12-27T11:37:20.052Z,100683.00
2022-12-27T11:43:27.848Z,100687.00
2022-12-27T11:49:37.380Z,100686.00
2022-12-27T11:56:16.814Z,100592.00
2022-12-27T12:02:32.448Z,100718.00
2022-12-27T12:08:55.576Z,100722.00
2022-12-27T12:15:19.200Z,100734.00
2022-12-27T12:21:32.038Z,100718.00
2022-12-27T12:28:09.749Z,100719.00
2022-12-27T12:34:43.695Z,100744.00
2022-12-27T12:40:52.128Z,100751.00
2022-12-27T12:47:31.862Z,100748.00
2022-12-27T12:53:48.778Z,100753.00
2022-12-27T12:59:59.680Z,100766.00
2022-12-27T13:06:11.530Z,100761.00
2022-12-27T13:12:37.160Z,100777.00
2022-12-27T13:19:16.401Z,100777.00
2022-12-27T13:25:37.924Z,100787.00
2022-12-27T13:31:48.859Z,100802.00
2022-12-27T13:38:15.839Z,100814.00
2022-12-27T13:44:38.622Z,100816.00
2022-12-27T13:50:55.924Z,100819.00
2022-12-27T13:57:22.817Z,100828.00
2022-12-27T14:03:38.906Z,100834.00
2022-12-27T14:10:01.615Z,100836.00
2022-12-27T14:16:21.658Z,100833.00
2022-12-27T14:22:41.125Z,100848.00
2022-12-27T14:29:00.132Z,100854.00
2022-12-27T14:35:33.664Z,100854.00
2022-12-27T14:42:08.241Z,100871.00
2022-12-27T14:48:47.878Z,100872.00
2022-12-27T14:55:14.776Z,100876.00
2022-12-27T15:01:39.606Z,100888.00
2022-12-27T15:08:26.260Z,100903.00
2022-12-27T15:14:51.736Z,100885.00
2022-12-27T15:21:06.187Z,100908.00
2022-12-27T15:27:43.550Z,100916.00
2022-12-27T15:33:48.782Z,100919.00
2022-12-27T15:39:51.235Z,100932.00
2022-12-27T15:45:54.254Z,100941.00
2022-12-27T15:52:17.725Z,100941.00
2022-12-27T15:58:21.214Z,100951.00
2022-12-27T16:04:45.935Z,100953.00
2022-12-27T16:10:49.959Z,100961.00
2022-12-27T16:16:55.092Z,100953.00
2022-12-27T16:23:00.505Z,100953.00
2022-12-27T16:29:05.420Z,100963.00
2022-12-27T16:35:14.799Z,100971.00
2022-12-27T16:41:26.326Z,100981.00
2022-12-27T16:47:31.454Z,100984.00
2022-12-27T16:54:01.661Z,101000.00
2022-12-27T17:00:41.550Z,101000.00
2022-12-27T17:06:43.620Z,101010.00
2022-12-27T17:12:52.341Z,101014.00
2022-12-27T17:19:00.481Z,101023.00
2022-12-27T17:25:03.052Z,101019.00
2022-12-27T17:31:15.323Z,101032.00
2022-12-27T17:37:26.730Z,101044.00
2022-12-27T17:44:15.073Z,101047.00
2022-12-27T17:50:24.153Z,101046.00
2022-12-27T17:56:44.845Z,101054.00
2022-12-27T18:02:47.197Z,101056.00
2022-12-27T18:08:50.015Z,101051.00
2022-12-27T18:14:55.625Z,101072.00
2022-12-27T18:21:00.966Z,101083.00
2022-12-27T18:27:08.162Z,101085.00
2022-12-27T18:33:14.933Z,101091.00
2022-12-27T18:39:31.000Z,101104.00
2022-12-27T18:45:34.156Z,101103.00
2022-12-27T18:51:40.029Z,101125.00
2022-12-27T18:57:42.202Z,101129.00
2022-12-27T19:03:44.453Z,101135.00
2022-12-27T19:09:52.090Z,101148.00
2022-12-27T19:15:55.957Z,101156.00
2022-12-27T19:21:58.960Z,101169.00
2022-12-27T19:28:10.594Z,101180.00
2022-12-27T19:34:18.363Z,101181.00
2022-12-27T19:40:20.729Z,101178.00
2022-12-27T19:46:30.452Z,101183.00
2022-12-27T19:52:33.678Z,101200.00
2022-12-27T19:58:35.831Z,101203.00
2022-12-27T20:04:38.309Z,101212.00
2022-12-27T20:10:40.552Z,101205.00
2022-12-27T20:16:42.732Z,101227.00
2022-12-27T20:22:47.224Z,101220.00
2022-12-27T20:28:50.293Z,101235.00
2022-12-27T20:34:52.495Z,101248.00
2022-12-27T20:40:54.781Z,101277.00
2022-12-27T20:46:56.897Z,101272.00
2022-12-27T20:52:59.218Z,101281.00
2022-12-27T20:59:01.747Z,101281.00
2022-12-27T21:05:04.159Z,101291.00
2022-12-27T21:11:07.358Z,101299.00
2022-12-27T21:17:09.940Z,101314.00
2022-12-27T21:23:12.044Z,101332.00
2022-12-27T21:29:16.775Z,101310.00
2022-12-27T21:35:18.916Z,101347.00
2022-12-27T21:41:26.712Z,101357.00
2022-12-27T21:47:29.520Z,101361.00
2022-12-27T21:53:31.528Z,101360.00
2022-12-27T21:59:33.537Z,101365.00
2022-12-27T22:05:35.558Z,101400.00
2022-12-27T22:11:38.398Z,101419.00
2022-12-27T22:17:40.537Z,101438.00
2022-12-27T22:23:44.648Z,101441.00
2022-12-27T22:29:46.965Z,101448.00
2022-12-27T22:35:49.300Z,101446.00
2022-12-27T22:41:51.557Z,101474.00
2022-12-27T22:47:54.069Z,101489.00
2022-12-27T22:53:57.223Z,101494.00
2022-12-27T22:59:59.386Z,101503.00
2022-12-27T23:06:01.569Z,101496.00
2022-12-27T23:12:03.710Z,101514.00
2022-12-27T23:18:05.802Z,101517.00
2022-12-27T23:24:08.638Z,101529.00
2022-12-27T23:30:11.672Z,101550.00
2022-12-27T23:36:15.019Z,101539.00
2022-12-27T23:42:17.086Z,101544.00
2022-12-27T23:48:19.160Z,101543.00
2022-12-27T23:54:21.199Z,101564.00
